ANA249A RJBB-RJTT
Flight info
| Callsign | ANA249A |
|---|---|
| Flight time | 0h 50m |
| Altitude | 33000 |
| Route | SOVRI UPRAL YAGYU SHTLE Y71 XAC |
| Aircraft | A388/J-SADE2E3FGHIJ3J4J5M1RWXY/LB1D1 |
Departure
| Time | 2026-05-06 11:21 |
|---|---|
| Airport | Kansai International Airport (RJBB) |
Arrival
| Time | 2026-05-06 12:11 |
|---|---|
| Airport | Tokyo Haneda International Airport (RJTT) |
| Time | Latitude | Longitude | Altitude | Speed | Heading |
|---|---|---|---|---|---|
| 2026-05-06 11:06 | 34.42904 | 135.23865 | 29 ft | 0 kts | 321° |
| 2026-05-06 11:10 | 34.42905 | 135.23865 | 24 ft | 0 kts | 321° |
| 2026-05-06 11:12 | 34.42902 | 135.23867 | 24 ft | 0 kts | 321° |
| 2026-05-06 11:13 | 34.42899 | 135.23870 | 29 ft | 0 kts | 321° |
| 2026-05-06 11:14 | 34.42893 | 135.23875 | 29 ft | 2 kts | 323° |
| 2026-05-06 11:15 | 34.42879 | 135.23887 | 29 ft | 4 kts | 325° |
| 2026-05-06 11:15 | 34.42877 | 135.23889 | 29 ft | 1 kts | 325° |
| 2026-05-06 11:15 | 34.42880 | 135.23886 | 29 ft | 1 kts | 325° |
| 2026-05-06 11:15 | 34.42887 | 135.23881 | 29 ft | 4 kts | 323° |
| 2026-05-06 11:16 | 34.42873 | 135.23894 | 29 ft | 5 kts | 317° |
| 2026-05-06 11:16 | 34.42868 | 135.23931 | 29 ft | 3 kts | 252° |
| 2026-05-06 11:16 | 34.42875 | 135.23947 | 29 ft | 0 kts | 238° |
| 2026-05-06 11:17 | 34.42872 | 135.23941 | 29 ft | 3 kts | 237° |
| 2026-05-06 11:18 | 34.42835 | 135.23886 | 29 ft | 13 kts | 220° |
| 2026-05-06 11:18 | 34.42739 | 135.23832 | 27 ft | 17 kts | 199° |
| 2026-05-06 11:18 | 34.42641 | 135.23756 | 29 ft | 18 kts | 229° |
| 2026-05-06 11:18 | 34.42553 | 135.23633 | 28 ft | 21 kts | 229° |
| 2026-05-06 11:19 | 34.42456 | 135.23495 | 29 ft | 22 kts | 230° |
| 2026-05-06 11:19 | 34.42354 | 135.23345 | 29 ft | 24 kts | 231° |
| 2026-05-06 11:19 | 34.42250 | 135.23188 | 29 ft | 24 kts | 232° |
| 2026-05-06 11:19 | 34.42147 | 135.23026 | 29 ft | 24 kts | 232° |
| 2026-05-06 11:20 | 34.42042 | 135.22866 | 25 ft | 24 kts | 231° |
| 2026-05-06 11:20 | 34.41923 | 135.22789 | 28 ft | 18 kts | 155° |
| 2026-05-06 11:20 | 34.41811 | 135.22884 | 21 ft | 21 kts | 133° |
| 2026-05-06 11:20 | 34.41814 | 135.23026 | 20 ft | 20 kts | 53° |
| 2026-05-06 11:21 | 34.42116 | 135.23470 | 22 ft | 119 kts | 51° |
| 2026-05-06 11:21 | 34.42800 | 135.24483 | 28 ft | 182 kts | 54° |
| 2026-05-06 11:21 | 34.43642 | 135.25721 | 494 ft | 199 kts | 51° |
| 2026-05-06 11:21 | 34.44564 | 135.27028 | 1432 ft | 199 kts | 52° |
| 2026-05-06 11:22 | 34.45425 | 135.28343 | 2691 ft | 201 kts | 52° |
| 2026-05-06 11:22 | 34.46348 | 135.29655 | 3721 ft | 212 kts | 57° |
| 2026-05-06 11:22 | 34.46864 | 135.31390 | 4538 ft | 231 kts | 86° |
| 2026-05-06 11:22 | 34.46868 | 135.33431 | 5339 ft | 254 kts | 93° |
| 2026-05-06 11:23 | 34.46847 | 135.35637 | 6078 ft | 276 kts | 89° |
| 2026-05-06 11:23 | 34.46969 | 135.37997 | 6988 ft | 285 kts | 84° |
| 2026-05-06 11:23 | 34.47209 | 135.40392 | 7997 ft | 289 kts | 82° |
| 2026-05-06 11:23 | 34.47509 | 135.42828 | 8975 ft | 295 kts | 81° |
| 2026-05-06 11:24 | 34.47837 | 135.45305 | 9963 ft | 301 kts | 81° |
| 2026-05-06 11:24 | 34.48179 | 135.47853 | 10645 ft | 316 kts | 81° |
| 2026-05-06 11:24 | 34.48541 | 135.50578 | 10967 ft | 340 kts | 81° |
| 2026-05-06 11:24 | 34.48926 | 135.53496 | 11377 ft | 358 kts | 81° |
| 2026-05-06 11:25 | 34.49321 | 135.56500 | 12151 ft | 363 kts | 81° |
| 2026-05-06 11:25 | 34.49715 | 135.59512 | 12924 ft | 369 kts | 82° |
| 2026-05-06 11:25 | 34.50119 | 135.62609 | 13705 ft | 375 kts | 82° |
| 2026-05-06 11:25 | 34.50527 | 135.65750 | 14431 ft | 380 kts | 81° |
| 2026-05-06 11:26 | 34.50941 | 135.68940 | 15131 ft | 385 kts | 81° |
| 2026-05-06 11:26 | 34.51358 | 135.72162 | 15804 ft | 390 kts | 81° |
| 2026-05-06 11:26 | 34.51782 | 135.75436 | 16514 ft | 395 kts | 81° |
| 2026-05-06 11:26 | 34.52212 | 135.78761 | 17185 ft | 403 kts | 81° |
| 2026-05-06 11:27 | 34.52647 | 135.82137 | 17934 ft | 408 kts | 81° |
| 2026-05-06 11:27 | 34.53086 | 135.85556 | 18647 ft | 414 kts | 81° |
| 2026-05-06 11:27 | 34.53527 | 135.88998 | 19239 ft | 423 kts | 82° |
| 2026-05-06 11:27 | 34.53980 | 135.92539 | 19843 ft | 431 kts | 82° |
| 2026-05-06 11:28 | 34.54517 | 135.96152 | 20456 ft | 439 kts | 78° |
| 2026-05-06 11:28 | 34.55009 | 135.99841 | 21000 ft | 447 kts | 85° |
| 2026-05-06 11:28 | 34.55319 | 136.03626 | 21584 ft | 454 kts | 87° |
| 2026-05-06 11:28 | 34.55605 | 136.07466 | 22156 ft | 461 kts | 87° |
| 2026-05-06 11:29 | 34.55912 | 136.11371 | 22663 ft | 469 kts | 87° |
| 2026-05-06 11:29 | 34.56244 | 136.15334 | 23209 ft | 476 kts | 87° |
| 2026-05-06 11:29 | 34.56589 | 136.19314 | 23719 ft | 483 kts | 87° |
| 2026-05-06 11:29 | 34.56947 | 136.23383 | 24113 ft | 490 kts | 87° |
| 2026-05-06 11:30 | 34.57307 | 136.27499 | 24623 ft | 494 kts | 87° |
| 2026-05-06 11:30 | 34.57672 | 136.31657 | 25131 ft | 498 kts | 88° |
| 2026-05-06 11:30 | 34.58015 | 136.35848 | 25611 ft | 500 kts | 89° |
| 2026-05-06 11:30 | 34.58274 | 136.40077 | 25956 ft | 505 kts | 90° |
| 2026-05-06 11:31 | 34.58511 | 136.44346 | 26377 ft | 509 kts | 90° |
| 2026-05-06 11:31 | 34.58755 | 136.48647 | 26817 ft | 513 kts | 90° |
| 2026-05-06 11:31 | 34.59006 | 136.52921 | 27240 ft | 517 kts | 90° |
| 2026-05-06 11:31 | 34.59264 | 136.57242 | 27702 ft | 521 kts | 90° |
| 2026-05-06 11:32 | 34.59532 | 136.61699 | 28182 ft | 525 kts | 90° |
| 2026-05-06 11:32 | 34.59798 | 136.66134 | 28635 ft | 530 kts | 90° |
| 2026-05-06 11:32 | 34.60064 | 136.70618 | 29104 ft | 535 kts | 90° |
| 2026-05-06 11:32 | 34.60331 | 136.75143 | 29560 ft | 539 kts | 90° |
| 2026-05-06 11:33 | 34.60598 | 136.79698 | 29966 ft | 545 kts | 90° |
| 2026-05-06 11:33 | 34.60867 | 136.84299 | 30596 ft | 544 kts | 90° |
| 2026-05-06 11:33 | 34.61134 | 136.88864 | 31233 ft | 543 kts | 91° |
| 2026-05-06 11:33 | 34.61394 | 136.93387 | 31678 ft | 546 kts | 91° |
| 2026-05-06 11:34 | 34.61657 | 136.98001 | 32174 ft | 548 kts | 91° |
| 2026-05-06 11:34 | 34.61919 | 137.02634 | 32563 ft | 553 kts | 91° |
| 2026-05-06 11:34 | 34.62181 | 137.07293 | 33063 ft | 554 kts | 91° |
| 2026-05-06 11:34 | 34.62443 | 137.11967 | 33561 ft | 556 kts | 91° |
| 2026-05-06 11:35 | 34.62705 | 137.16658 | 34042 ft | 558 kts | 91° |
| 2026-05-06 11:35 | 34.62965 | 137.21382 | 34410 ft | 562 kts | 91° |
| 2026-05-06 11:35 | 34.63225 | 137.26131 | 34744 ft | 566 kts | 91° |
| 2026-05-06 11:35 | 34.63485 | 137.30911 | 35180 ft | 568 kts | 91° |
| 2026-05-06 11:36 | 34.63744 | 137.35694 | 35643 ft | 569 kts | 91° |
| 2026-05-06 11:36 | 34.64002 | 137.40496 | 36097 ft | 570 kts | 91° |
| 2026-05-06 11:36 | 34.64254 | 137.45221 | 36485 ft | 572 kts | 91° |
| 2026-05-06 11:36 | 34.64509 | 137.50044 | 36961 ft | 572 kts | 91° |
| 2026-05-06 11:37 | 34.64763 | 137.54869 | 37431 ft | 573 kts | 91° |
| 2026-05-06 11:37 | 34.65015 | 137.59698 | 37910 ft | 573 kts | 91° |
| 2026-05-06 11:37 | 34.65264 | 137.64534 | 38310 ft | 575 kts | 91° |
| 2026-05-06 11:37 | 34.65512 | 137.69378 | 38764 ft | 575 kts | 91° |
| 2026-05-06 11:38 | 34.65755 | 137.74151 | 39094 ft | 576 kts | 91° |
| 2026-05-06 11:38 | 34.66247 | 137.84009 | 39143 ft | 595 kts | 91° |
| 2026-05-06 11:39 | 34.66749 | 137.94202 | 39137 ft | 614 kts | 91° |
| 2026-05-06 11:39 | 34.67003 | 137.99404 | 39293 ft | 619 kts | 90° |
| 2026-05-06 11:39 | 34.67258 | 138.04587 | 40107 ft | 608 kts | 90° |
| 2026-05-06 11:39 | 34.67505 | 138.09631 | 41032 ft | 597 kts | 89° |
| 2026-05-06 11:40 | 34.67746 | 138.14673 | 41239 ft | 602 kts | 89° |
| 2026-05-06 11:40 | 34.67985 | 138.19781 | 41501 ft | 602 kts | 89° |
| 2026-05-06 11:40 | 34.68217 | 138.24729 | 42532 ft | 589 kts | 89° |
| 2026-05-06 11:40 | 34.68446 | 138.29668 | 43336 ft | 582 kts | 89° |
| 2026-05-06 11:41 | 34.68671 | 138.34564 | 43401 ft | 581 kts | 89° |
| 2026-05-06 11:41 | 34.68892 | 138.39415 | 43209 ft | 567 kts | 89° |
| 2026-05-06 11:41 | 34.69107 | 138.44163 | 42241 ft | 563 kts | 89° |
| 2026-05-06 11:41 | 34.69319 | 138.48945 | 40850 ft | 571 kts | 90° |
| 2026-05-06 11:42 | 34.69531 | 138.53803 | 39462 ft | 580 kts | 91° |
| 2026-05-06 11:42 | 34.69745 | 138.58729 | 38050 ft | 587 kts | 91° |
| 2026-05-06 11:42 | 34.69957 | 138.63612 | 36937 ft | 585 kts | 91° |
| 2026-05-06 11:42 | 34.70170 | 138.68496 | 35810 ft | 584 kts | 91° |
| 2026-05-06 11:43 | 34.70381 | 138.73407 | 34669 ft | 583 kts | 91° |
| 2026-05-06 11:43 | 34.70589 | 138.78317 | 33459 ft | 582 kts | 91° |
| 2026-05-06 11:43 | 34.70796 | 138.83217 | 32257 ft | 580 kts | 91° |
| 2026-05-06 11:44 | 34.71196 | 138.92837 | 30468 ft | 562 kts | 91° |
| 2026-05-06 11:44 | 34.71393 | 138.97557 | 29509 ft | 554 kts | 91° |
| 2026-05-06 11:44 | 34.71486 | 139.02195 | 28540 ft | 544 kts | 96° |
| 2026-05-06 11:44 | 34.71429 | 139.06698 | 27632 ft | 537 kts | 95° |
| 2026-05-06 11:45 | 34.71410 | 139.11205 | 26754 ft | 530 kts | 95° |
| 2026-05-06 11:45 | 34.71397 | 139.15651 | 26032 ft | 520 kts | 95° |
| 2026-05-06 11:45 | 34.71384 | 139.19945 | 25764 ft | 500 kts | 95° |
| 2026-05-06 11:45 | 34.71366 | 139.24095 | 25542 ft | 480 kts | 95° |
| 2026-05-06 11:46 | 34.71345 | 139.28064 | 25345 ft | 461 kts | 96° |
| 2026-05-06 11:46 | 34.71320 | 139.31888 | 25165 ft | 443 kts | 96° |
| 2026-05-06 11:46 | 34.71292 | 139.35559 | 24981 ft | 426 kts | 95° |
| 2026-05-06 11:46 | 34.71305 | 139.39086 | 24825 ft | 412 kts | 88° |
| 2026-05-06 11:47 | 34.71853 | 139.42442 | 24357 ft | 413 kts | 70° |
| 2026-05-06 11:47 | 34.73111 | 139.45580 | 23752 ft | 412 kts | 59° |
| 2026-05-06 11:47 | 34.74596 | 139.48610 | 22279 ft | 431 kts | 55° |
| 2026-05-06 11:47 | 34.76234 | 139.51740 | 20940 ft | 444 kts | 55° |
| 2026-05-06 11:48 | 34.77911 | 139.54988 | 19351 ft | 461 kts | 59° |
| 2026-05-06 11:48 | 34.79614 | 139.58401 | 16682 ft | 492 kts | 60° |
| 2026-05-06 11:48 | 34.81199 | 139.62163 | 15281 ft | 493 kts | 62° |
| 2026-05-06 11:48 | 34.82746 | 139.65701 | 14851 ft | 464 kts | 56° |
| 2026-05-06 11:49 | 34.84633 | 139.68717 | 14072 ft | 446 kts | 42° |
| 2026-05-06 11:49 | 34.86987 | 139.71033 | 13408 ft | 424 kts | 27° |
| 2026-05-06 11:49 | 34.89576 | 139.72424 | 13126 ft | 398 kts | 13° |
| 2026-05-06 11:49 | 34.92203 | 139.73327 | 13032 ft | 381 kts | 11° |
| 2026-05-06 11:50 | 34.94670 | 139.74141 | 13035 ft | 354 kts | 11° |
| 2026-05-06 11:50 | 34.96950 | 139.74982 | 13029 ft | 331 kts | 17° |
| 2026-05-06 11:50 | 34.98935 | 139.76228 | 13034 ft | 314 kts | 31° |
| 2026-05-06 11:50 | 35.00591 | 139.77903 | 13039 ft | 308 kts | 42° |
| 2026-05-06 11:51 | 35.02119 | 139.79747 | 13042 ft | 312 kts | 41° |
| 2026-05-06 11:51 | 35.03682 | 139.81597 | 13033 ft | 312 kts | 41° |
| 2026-05-06 11:51 | 35.05214 | 139.83408 | 13034 ft | 311 kts | 41° |
| 2026-05-06 11:51 | 35.06761 | 139.85243 | 13031 ft | 310 kts | 41° |
| 2026-05-06 11:52 | 35.08307 | 139.87091 | 13024 ft | 311 kts | 44° |
| 2026-05-06 11:52 | 35.09465 | 139.89318 | 13025 ft | 314 kts | 70° |
| 2026-05-06 11:52 | 35.09798 | 139.91932 | 13034 ft | 312 kts | 96° |
| 2026-05-06 11:52 | 35.09659 | 139.94581 | 12897 ft | 315 kts | 85° |
| 2026-05-06 11:53 | 35.10260 | 139.97140 | 12654 ft | 314 kts | 59° |
| 2026-05-06 11:53 | 35.11624 | 139.99146 | 12412 ft | 306 kts | 33° |
| 2026-05-06 11:53 | 35.13436 | 140.00459 | 12164 ft | 302 kts | 22° |
| 2026-05-06 11:53 | 35.15267 | 140.01616 | 11885 ft | 301 kts | 25° |
| 2026-05-06 11:54 | 35.17068 | 140.02922 | 11626 ft | 300 kts | 29° |
| 2026-05-06 11:54 | 35.18793 | 140.04361 | 11335 ft | 300 kts | 32° |
| 2026-05-06 11:54 | 35.20468 | 140.05882 | 11084 ft | 301 kts | 33° |
| 2026-05-06 11:54 | 35.22135 | 140.07450 | 10809 ft | 303 kts | 33° |
| 2026-05-06 11:55 | 35.23794 | 140.09030 | 10528 ft | 301 kts | 34° |
| 2026-05-06 11:55 | 35.25438 | 140.10600 | 10228 ft | 300 kts | 34° |
| 2026-05-06 11:55 | 35.27078 | 140.12165 | 9943 ft | 299 kts | 34° |
| 2026-05-06 11:55 | 35.28723 | 140.13729 | 9638 ft | 298 kts | 34° |
| 2026-05-06 11:56 | 35.30337 | 140.15266 | 9349 ft | 298 kts | 34° |
| 2026-05-06 11:56 | 35.31968 | 140.16820 | 9050 ft | 296 kts | 35° |
| 2026-05-06 11:56 | 35.33585 | 140.18363 | 8736 ft | 294 kts | 35° |
| 2026-05-06 11:56 | 35.35177 | 140.19883 | 8561 ft | 287 kts | 35° |
| 2026-05-06 11:57 | 35.36802 | 140.21263 | 8249 ft | 282 kts | 20° |
| 2026-05-06 11:57 | 35.38675 | 140.21733 | 8074 ft | 272 kts | 352° |
| 2026-05-06 11:57 | 35.40500 | 140.21366 | 8028 ft | 266 kts | 343° |
| 2026-05-06 11:57 | 35.42328 | 140.20951 | 8023 ft | 268 kts | 345° |
| 2026-05-06 11:58 | 35.44164 | 140.20555 | 8025 ft | 268 kts | 345° |
| 2026-05-06 11:58 | 35.45976 | 140.20169 | 8027 ft | 268 kts | 345° |
| 2026-05-06 11:58 | 35.47820 | 140.19772 | 8023 ft | 269 kts | 345° |
| 2026-05-06 11:58 | 35.49661 | 140.19375 | 8018 ft | 268 kts | 345° |
| 2026-05-06 11:59 | 35.51505 | 140.18972 | 8015 ft | 269 kts | 345° |
| 2026-05-06 11:59 | 35.53344 | 140.18571 | 8014 ft | 269 kts | 345° |
| 2026-05-06 11:59 | 35.55184 | 140.18170 | 8015 ft | 269 kts | 345° |
| 2026-05-06 11:59 | 35.57024 | 140.17770 | 7999 ft | 268 kts | 345° |
| 2026-05-06 12:00 | 35.58834 | 140.17375 | 7830 ft | 270 kts | 345° |
| 2026-05-06 12:00 | 35.60684 | 140.16970 | 7394 ft | 272 kts | 345° |
| 2026-05-06 12:00 | 35.62597 | 140.16548 | 6546 ft | 286 kts | 347° |
| 2026-05-06 12:00 | 35.64574 | 140.16114 | 5854 ft | 290 kts | 347° |
| 2026-05-06 12:01 | 35.66523 | 140.15678 | 5292 ft | 286 kts | 343° |
| 2026-05-06 12:01 | 35.68375 | 140.14903 | 5068 ft | 278 kts | 331° |
| 2026-05-06 12:01 | 35.70101 | 140.13884 | 5016 ft | 277 kts | 332° |
| 2026-05-06 12:01 | 35.71850 | 140.12892 | 5008 ft | 278 kts | 332° |
| 2026-05-06 12:02 | 35.73609 | 140.11907 | 5019 ft | 279 kts | 332° |
| 2026-05-06 12:02 | 35.75374 | 140.10918 | 5008 ft | 278 kts | 332° |
| 2026-05-06 12:02 | 35.77083 | 140.09958 | 5005 ft | 268 kts | 332° |
| 2026-05-06 12:02 | 35.78716 | 140.09042 | 5009 ft | 257 kts | 332° |
| 2026-05-06 12:03 | 35.80301 | 140.08111 | 4999 ft | 249 kts | 324° |
| 2026-05-06 12:03 | 35.81484 | 140.06634 | 5006 ft | 242 kts | 295° |
| 2026-05-06 12:03 | 35.81959 | 140.04698 | 5013 ft | 235 kts | 269° |
| 2026-05-06 12:03 | 35.81700 | 140.02784 | 5014 ft | 230 kts | 245° |
| 2026-05-06 12:04 | 35.81006 | 140.01011 | 5015 ft | 230 kts | 243° |
| 2026-05-06 12:04 | 35.80339 | 139.99257 | 5013 ft | 220 kts | 243° |
| 2026-05-06 12:04 | 35.79639 | 139.97651 | 5002 ft | 214 kts | 231° |
| 2026-05-06 12:04 | 35.78561 | 139.96452 | 4877 ft | 208 kts | 214° |
| 2026-05-06 12:05 | 35.77362 | 139.95464 | 4762 ft | 206 kts | 214° |
| 2026-05-06 12:05 | 35.76177 | 139.94470 | 4781 ft | 207 kts | 214° |
| 2026-05-06 12:05 | 35.74980 | 139.93450 | 4567 ft | 210 kts | 215° |
| 2026-05-06 12:05 | 35.73793 | 139.92423 | 4347 ft | 209 kts | 215° |
| 2026-05-06 12:06 | 35.72607 | 139.91398 | 4101 ft | 209 kts | 215° |
| 2026-05-06 12:06 | 35.71436 | 139.90385 | 3843 ft | 196 kts | 215° |
| 2026-05-06 12:06 | 35.70428 | 139.89514 | 3620 ft | 160 kts | 215° |
| 2026-05-06 12:06 | 35.69575 | 139.88777 | 3415 ft | 142 kts | 214° |
| 2026-05-06 12:07 | 35.68801 | 139.88108 | 3238 ft | 135 kts | 214° |
| 2026-05-06 12:07 | 35.68024 | 139.87437 | 3055 ft | 136 kts | 214° |
| 2026-05-06 12:07 | 35.67246 | 139.86765 | 2880 ft | 140 kts | 213° |
| 2026-05-06 12:07 | 35.66465 | 139.86090 | 2695 ft | 135 kts | 213° |
| 2026-05-06 12:08 | 35.65710 | 139.85439 | 2507 ft | 132 kts | 213° |
| 2026-05-06 12:08 | 35.64954 | 139.84786 | 2339 ft | 132 kts | 213° |
| 2026-05-06 12:08 | 35.64207 | 139.84141 | 2154 ft | 131 kts | 213° |
| 2026-05-06 12:08 | 35.63464 | 139.83501 | 1988 ft | 130 kts | 212° |
| 2026-05-06 12:09 | 35.62722 | 139.82860 | 1733 ft | 131 kts | 212° |
| 2026-05-06 12:09 | 35.61995 | 139.82218 | 1515 ft | 130 kts | 212° |
| 2026-05-06 12:09 | 35.61247 | 139.81592 | 1347 ft | 130 kts | 212° |
| 2026-05-06 12:09 | 35.60510 | 139.80949 | 1166 ft | 130 kts | 212° |
| 2026-05-06 12:10 | 35.59764 | 139.80315 | 960 ft | 131 kts | 212° |
| 2026-05-06 12:10 | 35.58998 | 139.79676 | 624 ft | 131 kts | 212° |
| 2026-05-06 12:10 | 35.58249 | 139.79038 | 423 ft | 132 kts | 213° |
| 2026-05-06 12:10 | 35.57501 | 139.78375 | 235 ft | 133 kts | 213° |
| 2026-05-06 12:11 | 35.56755 | 139.77723 | 56 ft | 130 kts | 213° |
| 2026-05-06 12:11 | 35.56113 | 139.77172 | 30 ft | 92 kts | 214° |
| 2026-05-06 12:11 | 35.55702 | 139.76829 | 30 ft | 56 kts | 215° |
| 2026-05-06 12:11 | 35.55474 | 139.76656 | 30 ft | 28 kts | 195° |
| 2026-05-06 12:12 | 35.55385 | 139.76631 | 29 ft | 2 kts | 189° |
| 2026-05-06 12:12 | 35.55346 | 139.76624 | 28 ft | 9 kts | 186° |
| 2026-05-06 12:12 | 35.55272 | 139.76613 | 28 ft | 13 kts | 187° |
| 2026-05-06 12:12 | 35.55189 | 139.76609 | 28 ft | 7 kts | 140° |
| 2026-05-06 12:13 | 35.55159 | 139.76678 | 28 ft | 10 kts | 91° |
| 2026-05-06 12:13 | 35.55185 | 139.76771 | 28 ft | 14 kts | 63° |
| 2026-05-06 12:13 | 35.55232 | 139.76876 | 28 ft | 8 kts | 60° |
| 2026-05-06 12:13 | 35.55243 | 139.76900 | 28 ft | 0 kts | 60° |
| 2026-05-06 12:14 | 35.55249 | 139.76913 | 28 ft | 7 kts | 60° |
| 2026-05-06 12:14 | 35.55265 | 139.77001 | 28 ft | 12 kts | 111° |
| 2026-05-06 12:15 | 35.55211 | 139.77088 | 28 ft | 14 kts | 147° |
| 2026-05-06 12:15 | 35.55121 | 139.77150 | 28 ft | 16 kts | 150° |
| 2026-05-06 12:15 | 35.55021 | 139.77221 | 28 ft | 18 kts | 150° |
| 2026-05-06 12:15 | 35.54911 | 139.77299 | 28 ft | 19 kts | 150° |
| 2026-05-06 12:16 | 35.54797 | 139.77379 | 28 ft | 19 kts | 150° |
| 2026-05-06 12:16 | 35.54686 | 139.77432 | 28 ft | 16 kts | 193° |
| 2026-05-06 12:16 | 35.54610 | 139.77341 | 28 ft | 17 kts | 238° |
| 2026-05-06 12:16 | 35.54541 | 139.77228 | 28 ft | 15 kts | 202° |
| 2026-05-06 12:17 | 35.54468 | 139.77252 | 28 ft | 12 kts | 157° |
| 2026-05-06 12:17 | 35.54400 | 139.77263 | 28 ft | 9 kts | 223° |
| 2026-05-06 12:17 | 35.54359 | 139.77204 | 28 ft | 1 kts | 237° |
| 2026-05-06 12:17 | 35.54355 | 139.77195 | 28 ft | 0 kts | 238° |